Weather at Chehalem Mountain Heliport

Public forecast

Using degrees Fahrenheit for public forecast. Weather courtesy of forecast.io.

Closest aviation weather report (METAR) to Chehalem Mountain Heliport

Closest report is Aurora State Airport, 9.9 nm (18.3 km) SE. Retrieved 2021/06/20 08:53 UTC (1 hour ago):

KUAO 200853Z AUTO 36005KT 10SM CLR 17/12 A2998 RMK AO2 SLP148 T01720122 52002

Closest aviation forecast (TAF) to Chehalem Mountain Heliport

Closest forecast is Aurora State Airport, 9.9 nm (18.3 km) SE. Retrieved 2021/06/20 06:20 UTC (4 hours ago):

TAF KUAO 200520Z 2006/2106 35007KT P6SM SKC FM200900 VRB04KT P6SM SKC FM202000 01009KT P6SM SKC